createdAt,value
2018-03-10T00:00:12.531Z,987.6
2018-03-10T00:01:14.091Z,987.6
2018-03-10T00:02:15.644Z,987.5
2018-03-10T00:03:17.089Z,987.5
2018-03-10T00:04:18.530Z,987.5
2018-03-10T00:05:19.988Z,987.5
2018-03-10T00:06:21.480Z,987.6
2018-03-10T00:07:22.988Z,987.5
2018-03-10T00:08:24.520Z,987.5
2018-03-10T00:09:26.055Z,987.6
2018-03-10T00:10:27.559Z,987.5
2018-03-10T00:11:29.060Z,987.5
2018-03-10T00:12:30.542Z,987.5
2018-03-10T00:13:32.023Z,987.5
2018-03-10T00:14:33.497Z,987.6
2018-03-10T00:15:35.002Z,987.5
2018-03-10T00:16:36.553Z,987.5
2018-03-10T00:17:38.100Z,987.6
2018-03-10T00:18:39.592Z,987.6
2018-03-10T00:19:41.073Z,987.5
2018-03-10T00:20:42.567Z,987.5
2018-03-10T00:21:44.051Z,987.5
2018-03-10T00:22:45.531Z,987.5
2018-03-10T00:23:47.048Z,987.5
2018-03-10T00:24:48.541Z,987.5
2018-03-10T00:25:50.082Z,987.4
2018-03-10T00:26:51.600Z,987.4
2018-03-10T00:27:53.130Z,987.4
2018-03-10T00:28:54.656Z,987.4
2018-03-10T00:29:56.155Z,987.4
2018-03-10T00:30:57.765Z,987.4
2018-03-10T00:31:59.413Z,987.4
2018-03-10T00:33:00.885Z,987.4
2018-03-10T00:34:02.428Z,987.4
2018-03-10T00:35:03.951Z,987.4
2018-03-10T00:36:05.444Z,987.4
2018-03-10T00:37:06.960Z,987.4
2018-03-10T00:38:08.498Z,987.4
2018-03-10T00:39:10.032Z,987.4
2018-03-10T00:40:11.539Z,987.4
2018-03-10T00:41:13.102Z,987.3
2018-03-10T00:42:14.607Z,987.3
2018-03-10T00:43:16.096Z,987.3
2018-03-10T00:44:17.669Z,987.4
2018-03-10T00:45:19.142Z,987.4
2018-03-10T00:46:20.647Z,987.4
2018-03-10T00:47:22.160Z,987.4
2018-03-10T00:48:23.711Z,987.3
2018-03-10T00:49:25.263Z,987.3
2018-03-10T00:50:26.768Z,987.3
2018-03-10T00:51:28.248Z,987.3
2018-03-10T00:52:29.722Z,987.3
2018-03-10T00:53:31.224Z,987.3
2018-03-10T00:54:32.724Z,987.3
2018-03-10T00:55:34.238Z,987.3
2018-03-10T00:56:35.803Z,987.2
2018-03-10T00:57:37.284Z,987.2
2018-03-10T00:58:38.834Z,987.3
2018-03-10T00:59:40.357Z,987.3
2018-03-10T01:00:41.808Z,987.2
2018-03-10T01:01:43.329Z,987.3
2018-03-10T01:02:44.895Z,987.2
2018-03-10T01:03:46.360Z,987.2
2018-03-10T01:04:47.855Z,987.3
2018-03-10T01:05:49.328Z,987.3
2018-03-10T01:06:50.826Z,987.2
2018-03-10T01:07:52.314Z,987.2
2018-03-10T01:08:53.788Z,987.2
2018-03-10T01:09:55.248Z,987.2
2018-03-10T01:10:56.695Z,987.2
2018-03-10T01:11:58.198Z,987.2
2018-03-10T01:12:59.651Z,987.2
2018-03-10T01:14:01.176Z,987.1
2018-03-10T01:15:02.706Z,987.1
2018-03-10T01:16:04.216Z,987.2
2018-03-10T01:17:05.664Z,987.1
2018-03-10T01:18:07.179Z,987.1
2018-03-10T01:19:08.680Z,987.1
2018-03-10T01:20:10.121Z,987.1
2018-03-10T01:21:11.647Z,987.1
2018-03-10T01:22:13.137Z,987.1
2018-03-10T01:23:14.637Z,987.0
2018-03-10T01:24:16.182Z,987.0
2018-03-10T01:25:17.693Z,987.0
2018-03-10T01:26:19.297Z,987.0
2018-03-10T01:27:20.842Z,987.0
2018-03-10T01:28:22.321Z,987.0
2018-03-10T01:29:23.874Z,986.9
2018-03-10T01:30:25.347Z,986.9
2018-03-10T01:31:26.827Z,986.9
2018-03-10T01:32:28.356Z,986.9
2018-03-10T01:33:29.831Z,986.9
2018-03-10T01:34:31.321Z,986.9
2018-03-10T01:35:32.880Z,986.8
2018-03-10T01:36:34.345Z,986.8
2018-03-10T01:37:35.878Z,986.8
2018-03-10T01:38:37.383Z,986.8
2018-03-10T01:39:38.891Z,986.8
2018-03-10T01:40:40.427Z,986.8
2018-03-10T01:41:41.883Z,986.8
2018-03-10T01:42:43.389Z,986.8
2018-03-10T01:43:44.876Z,986.7
2018-03-10T01:44:46.389Z,986.7
2018-03-10T01:45:47.906Z,986.7
2018-03-10T01:46:49.427Z,986.7
2018-03-10T01:47:50.950Z,986.7
2018-03-10T01:48:52.390Z,986.7
2018-03-10T01:49:53.896Z,986.6
2018-03-10T01:50:55.400Z,986.6
2018-03-10T01:51:56.878Z,986.7
2018-03-10T01:52:58.293Z,986.7
2018-03-10T01:53:59.787Z,986.6
2018-03-10T01:55:01.291Z,986.6
2018-03-10T01:56:02.790Z,986.6
2018-03-10T01:57:04.342Z,986.7
2018-03-10T01:58:05.840Z,986.7
2018-03-10T01:59:07.312Z,986.7
2018-03-10T02:00:08.815Z,986.7
2018-03-10T02:01:10.345Z,986.6
2018-03-10T02:02:11.866Z,986.6
2018-03-10T02:03:13.351Z,986.6
2018-03-10T02:04:14.858Z,986.5
2018-03-10T02:05:16.393Z,986.6
2018-03-10T02:06:17.904Z,986.6
2018-03-10T02:07:19.424Z,986.5
2018-03-10T02:08:20.925Z,986.5
2018-03-10T02:09:22.456Z,986.5
2018-03-10T02:10:23.992Z,986.4
2018-03-10T02:11:25.460Z,986.4
2018-03-10T02:12:26.986Z,986.4
2018-03-10T02:13:28.468Z,986.4
2018-03-10T02:14:29.932Z,986.4
2018-03-10T02:15:31.493Z,986.4
2018-03-10T02:16:33.005Z,986.4
2018-03-10T02:17:34.524Z,986.4
2018-03-10T02:18:35.985Z,986.4
2018-03-10T02:19:37.527Z,986.4
2018-03-10T02:20:39.087Z,986.3
2018-03-10T02:21:40.569Z,986.3
2018-03-10T02:22:42.100Z,986.3
2018-03-10T02:23:43.585Z,986.3
2018-03-10T02:24:45.101Z,986.3
2018-03-10T02:25:46.606Z,986.3
2018-03-10T02:26:48.087Z,986.3
2018-03-10T02:27:49.645Z,986.2
2018-03-10T02:28:51.108Z,986.2
2018-03-10T02:29:52.580Z,986.2
2018-03-10T02:30:54.080Z,986.3
2018-03-10T02:31:55.650Z,986.3
2018-03-10T02:32:57.174Z,986.2
2018-03-10T02:33:58.708Z,986.3
2018-03-10T02:35:00.235Z,986.2
2018-03-10T02:36:01.736Z,986.2
2018-03-10T02:37:03.222Z,986.2
2018-03-10T02:38:04.775Z,986.2
2018-03-10T02:39:06.308Z,986.2
2018-03-10T02:40:07.797Z,986.2
2018-03-10T02:41:09.393Z,986.2
2018-03-10T02:42:10.889Z,986.2
2018-03-10T02:43:12.390Z,986.2
2018-03-10T02:44:13.883Z,986.2
2018-03-10T02:45:15.375Z,986.1
2018-03-10T02:46:16.863Z,986.1
2018-03-10T02:47:18.410Z,986.1
2018-03-10T02:48:19.913Z,986.1
2018-03-10T02:49:21.378Z,986.1
2018-03-10T02:50:22.897Z,986.0
2018-03-10T02:51:24.445Z,986.0
2018-03-10T02:52:26.030Z,986.0
2018-03-10T02:53:27.545Z,986.0
2018-03-10T02:54:29.062Z,986.0
2018-03-10T02:55:30.572Z,986.0
2018-03-10T02:56:32.087Z,986.0
2018-03-10T02:57:33.594Z,985.9
2018-03-10T02:58:35.072Z,986.0
2018-03-10T02:59:36.600Z,985.9
2018-03-10T03:00:38.117Z,985.9
2018-03-10T03:01:39.557Z,985.9
2018-03-10T03:02:41.092Z,985.9
2018-03-10T03:03:42.572Z,985.9
2018-03-10T03:04:44.095Z,985.9
2018-03-10T03:05:45.630Z,985.9
2018-03-10T03:06:47.059Z,985.9
2018-03-10T03:07:48.599Z,985.9
2018-03-10T03:08:50.076Z,985.9
2018-03-10T03:09:51.555Z,985.9
2018-03-10T03:10:53.054Z,985.8
2018-03-10T03:11:54.583Z,985.8
2018-03-10T03:12:56.207Z,985.8
2018-03-10T03:13:57.726Z,985.8
2018-03-10T03:14:59.335Z,985.8
2018-03-10T03:16:00.831Z,985.8
2018-03-10T03:17:02.353Z,985.7
2018-03-10T03:18:03.840Z,985.7
2018-03-10T03:19:05.326Z,985.8
2018-03-10T03:20:06.824Z,985.7
2018-03-10T03:21:08.310Z,985.7
2018-03-10T03:22:09.914Z,985.7
2018-03-10T03:23:11.437Z,985.7
2018-03-10T03:24:12.940Z,985.7
2018-03-10T03:25:14.473Z,985.7
2018-03-10T03:26:15.984Z,985.7
2018-03-10T03:27:17.438Z,985.7
2018-03-10T03:28:18.900Z,985.7
2018-03-10T03:29:20.428Z,985.7
2018-03-10T03:30:21.910Z,985.7
2018-03-10T03:31:23.387Z,985.8
2018-03-10T03:32:24.811Z,985.8
2018-03-10T03:33:26.297Z,985.7
2018-03-10T03:34:27.803Z,985.8
2018-03-10T03:35:29.328Z,985.7
2018-03-10T03:36:30.797Z,985.7
2018-03-10T03:37:32.258Z,985.7
2018-03-10T03:38:33.751Z,985.7
2018-03-10T03:39:35.269Z,985.7
2018-03-10T03:40:36.812Z,985.7
2018-03-10T03:41:38.312Z,985.7
2018-03-10T03:42:39.778Z,985.7
2018-03-10T03:43:41.285Z,985.7
2018-03-10T03:44:42.803Z,985.7
2018-03-10T03:45:44.240Z,985.6
2018-03-10T03:46:45.767Z,985.6
2018-03-10T03:47:47.250Z,985.6
2018-03-10T03:48:48.756Z,985.6
2018-03-10T03:49:50.269Z,985.6
2018-03-10T03:50:51.806Z,985.7
2018-03-10T03:51:53.271Z,985.6
2018-03-10T03:52:54.743Z,985.6
2018-03-10T03:53:56.225Z,985.6
2018-03-10T03:54:57.733Z,985.6
2018-03-10T03:55:59.269Z,985.6
2018-03-10T03:57:00.839Z,985.6
2018-03-10T03:58:02.371Z,985.5
2018-03-10T03:59:03.888Z,985.5
2018-03-10T04:00:05.383Z,985.5
2018-03-10T04:01:06.921Z,985.4
2018-03-10T04:02:08.450Z,985.5
2018-03-10T04:03:09.975Z,985.4
2018-03-10T04:04:11.469Z,985.4
2018-03-10T04:05:12.972Z,985.4
2018-03-10T04:06:14.433Z,985.4
2018-03-10T04:07:15.947Z,985.4
2018-03-10T04:08:17.466Z,985.4
2018-03-10T04:09:18.974Z,985.5
2018-03-10T04:10:20.579Z,985.5
2018-03-10T04:11:22.061Z,985.5
2018-03-10T04:12:23.558Z,985.5
2018-03-10T04:13:25.065Z,985.4
2018-03-10T04:14:26.617Z,985.5
2018-03-10T04:15:28.103Z,985.4
2018-03-10T04:16:29.593Z,985.4
2018-03-10T04:17:31.070Z,985.4
2018-03-10T04:18:32.522Z,985.4
2018-03-10T04:19:34.013Z,985.4
2018-03-10T04:20:35.538Z,985.4
2018-03-10T04:21:37.037Z,985.4
2018-03-10T04:22:38.534Z,985.4
2018-03-10T04:23:40.012Z,985.4
2018-03-10T04:24:41.487Z,985.4
2018-03-10T04:25:43.015Z,985.3
2018-03-10T04:26:44.578Z,985.4
2018-03-10T04:27:46.082Z,985.4
2018-03-10T04:28:47.594Z,985.4
2018-03-10T04:29:49.066Z,985.4
2018-03-10T04:30:50.623Z,985.4
2018-03-10T04:31:52.130Z,985.4
2018-03-10T04:32:53.629Z,985.4
2018-03-10T04:33:55.135Z,985.4
2018-03-10T04:34:56.717Z,985.5
2018-03-10T04:35:58.199Z,985.5
2018-03-10T04:36:59.646Z,985.4
2018-03-10T04:38:01.166Z,985.4
2018-03-10T04:39:02.692Z,985.5
2018-03-10T04:40:04.207Z,985.4
2018-03-10T04:41:05.783Z,985.4
2018-03-10T04:42:07.235Z,985.4
2018-03-10T04:43:08.752Z,985.4
2018-03-10T04:44:10.242Z,985.4
2018-03-10T04:45:11.720Z,985.4
2018-03-10T04:46:13.281Z,985.4
2018-03-10T04:47:14.789Z,985.4
2018-03-10T04:48:16.369Z,985.5
2018-03-10T04:49:17.890Z,985.4
2018-03-10T04:50:19.398Z,985.5
2018-03-10T04:51:20.868Z,985.5
2018-03-10T04:52:22.954Z,985.5
2018-03-10T04:53:24.489Z,985.5
2018-03-10T04:54:26.023Z,985.5
2018-03-10T04:55:27.546Z,985.5
2018-03-10T04:56:29.278Z,985.5
2018-03-10T04:57:30.798Z,985.5
2018-03-10T04:58:32.312Z,985.6
2018-03-10T04:59:33.787Z,985.6
2018-03-10T05:00:35.264Z,985.5
2018-03-10T05:01:36.709Z,985.5
2018-03-10T05:02:38.267Z,985.5
2018-03-10T05:03:39.866Z,985.5
2018-03-10T05:04:41.335Z,985.5
2018-03-10T05:05:42.880Z,985.5
2018-03-10T05:06:44.459Z,985.6
2018-03-10T05:07:45.927Z,985.5
2018-03-10T05:08:47.412Z,985.5
2018-03-10T05:09:48.901Z,985.5
2018-03-10T05:10:50.368Z,985.5
2018-03-10T05:11:51.892Z,985.5
2018-03-10T05:12:53.345Z,985.5
2018-03-10T05:13:54.834Z,985.5
2018-03-10T05:14:56.328Z,985.5
2018-03-10T05:15:57.804Z,985.5
2018-03-10T05:16:59.280Z,985.5
2018-03-10T05:18:00.803Z,985.4
2018-03-10T05:19:02.321Z,985.5
2018-03-10T05:20:03.806Z,985.5
2018-03-10T05:21:05.326Z,985.5
2018-03-10T05:22:06.852Z,985.5
2018-03-10T05:23:08.385Z,985.5
2018-03-10T05:24:10.481Z,985.6
2018-03-10T05:25:11.988Z,985.5
2018-03-10T05:26:13.599Z,985.5
2018-03-10T05:27:15.121Z,985.5
2018-03-10T05:28:16.620Z,985.5
2018-03-10T05:29:18.143Z,985.4
2018-03-10T05:30:19.676Z,985.4
2018-03-10T05:31:21.163Z,985.4
2018-03-10T05:32:22.727Z,985.4
2018-03-10T05:33:24.190Z,985.4
2018-03-10T05:34:25.693Z,985.3
2018-03-10T05:35:27.503Z,985.4
2018-03-10T05:36:29.010Z,985.4
2018-03-10T05:37:30.468Z,985.4
2018-03-10T05:38:31.968Z,985.4
2018-03-10T05:39:33.455Z,985.5
2018-03-10T05:40:35.026Z,985.5
2018-03-10T05:41:36.523Z,985.5
2018-03-10T05:42:38.091Z,985.5
2018-03-10T05:43:39.738Z,985.5
2018-03-10T05:44:41.220Z,985.5
2018-03-10T05:45:42.696Z,985.5
2018-03-10T05:46:44.209Z,985.5
2018-03-10T05:47:45.750Z,985.5
2018-03-10T05:48:47.258Z,985.5
2018-03-10T05:49:48.763Z,985.5
2018-03-10T05:50:50.360Z,985.5
2018-03-10T05:51:51.899Z,985.6
2018-03-10T05:52:53.529Z,985.5
2018-03-10T05:53:55.060Z,985.5
2018-03-10T05:54:56.541Z,985.5
2018-03-10T05:55:58.115Z,985.5
2018-03-10T05:56:59.706Z,985.5
2018-03-10T05:58:01.167Z,985.5
2018-03-10T05:59:02.646Z,985.5
2018-03-10T06:00:04.210Z,985.5
2018-03-10T06:01:05.728Z,985.5
2018-03-10T06:02:07.201Z,985.5
2018-03-10T06:03:08.713Z,985.5
2018-03-10T06:04:10.273Z,985.5
2018-03-10T06:05:11.802Z,985.5
2018-03-10T06:06:13.297Z,985.5
2018-03-10T06:07:14.801Z,985.5
2018-03-10T06:08:16.381Z,985.5
2018-03-10T06:09:17.908Z,985.5
2018-03-10T06:10:19.436Z,985.5
2018-03-10T06:11:20.944Z,985.5
2018-03-10T06:12:22.522Z,985.5
2018-03-10T06:13:24.056Z,985.5
2018-03-10T06:14:25.622Z,985.5
2018-03-10T06:15:27.146Z,985.5
2018-03-10T06:16:28.669Z,985.5
2018-03-10T06:17:30.173Z,985.5
2018-03-10T06:18:31.682Z,985.4
2018-03-10T06:19:33.183Z,985.5
2018-03-10T06:20:34.770Z,985.5
2018-03-10T06:21:36.269Z,985.5
2018-03-10T06:22:37.754Z,985.5
2018-03-10T06:23:40.125Z,985.5
2018-03-10T06:24:41.653Z,985.5
2018-03-10T06:25:43.190Z,985.5
2018-03-10T06:26:44.695Z,985.5
2018-03-10T06:27:46.143Z,985.5
2018-03-10T06:28:47.684Z,985.5
2018-03-10T06:29:49.217Z,985.5
2018-03-10T06:30:50.696Z,985.5
2018-03-10T06:31:52.218Z,985.5
2018-03-10T06:32:53.719Z,985.5
2018-03-10T06:33:55.296Z,985.5
2018-03-10T06:34:56.806Z,985.5
2018-03-10T06:35:58.282Z,985.5
2018-03-10T06:36:59.762Z,985.5
2018-03-10T06:38:01.315Z,985.5
2018-03-10T06:39:02.776Z,985.5
2018-03-10T06:40:04.307Z,985.5
2018-03-10T06:41:05.827Z,985.5
2018-03-10T06:42:07.308Z,985.5
2018-03-10T06:43:08.838Z,985.5
2018-03-10T06:44:10.347Z,985.4
2018-03-10T06:45:11.893Z,985.4
2018-03-10T06:46:13.510Z,985.4
2018-03-10T06:47:15.006Z,985.4
2018-03-10T06:48:16.514Z,985.4
2018-03-10T06:49:18.026Z,985.4
2018-03-10T06:50:19.501Z,985.4
2018-03-10T06:51:21.013Z,985.4
2018-03-10T06:52:22.527Z,985.4
2018-03-10T06:53:24.043Z,985.4
2018-03-10T06:54:25.602Z,985.4
2018-03-10T06:55:27.104Z,985.4
2018-03-10T06:56:28.647Z,985.4
2018-03-10T06:57:30.150Z,985.4
2018-03-10T06:58:31.661Z,985.4
2018-03-10T06:59:33.207Z,985.4
2018-03-10T07:00:34.870Z,985.4
2018-03-10T07:01:36.382Z,985.4
2018-03-10T07:02:37.876Z,985.5
2018-03-10T07:03:39.380Z,985.5
2018-03-10T07:04:40.961Z,985.5
2018-03-10T07:05:42.515Z,985.5
2018-03-10T07:06:44.059Z,985.5
2018-03-10T07:07:45.597Z,985.5
2018-03-10T07:08:47.110Z,985.6
2018-03-10T07:09:48.665Z,985.6
2018-03-10T07:10:50.208Z,985.6
2018-03-10T07:11:51.755Z,985.5
2018-03-10T07:12:53.340Z,985.6
2018-03-10T07:13:54.916Z,985.5
2018-03-10T07:14:56.405Z,985.5
2018-03-10T07:15:57.927Z,985.6
2018-03-10T07:16:59.447Z,985.6
2018-03-10T07:18:00.991Z,985.5
2018-03-10T07:19:02.484Z,985.5
2018-03-10T07:20:04.033Z,985.5
2018-03-10T07:21:05.531Z,985.5
2018-03-10T07:22:06.968Z,985.6
2018-03-10T07:23:08.481Z,985.6
2018-03-10T07:24:10.009Z,985.6
2018-03-10T07:25:11.574Z,985.6
2018-03-10T07:26:13.070Z,985.6
2018-03-10T07:27:14.586Z,985.6
2018-03-10T07:28:16.093Z,985.6
2018-03-10T07:29:17.604Z,985.6
2018-03-10T07:30:19.129Z,985.6
2018-03-10T07:31:20.670Z,985.6
2018-03-10T07:32:22.184Z,985.6
2018-03-10T07:33:23.739Z,985.6
2018-03-10T07:34:25.254Z,985.6
2018-03-10T07:35:26.765Z,985.6
2018-03-10T07:36:28.321Z,985.6
2018-03-10T07:37:29.826Z,985.6
2018-03-10T07:38:31.436Z,985.5
2018-03-10T07:39:32.962Z,985.6
2018-03-10T07:40:34.479Z,985.6
2018-03-10T07:41:36.023Z,985.6
2018-03-10T07:42:37.525Z,985.6
2018-03-10T07:43:39.034Z,985.6
2018-03-10T07:44:40.555Z,985.6
2018-03-10T07:45:42.083Z,985.7
2018-03-10T07:46:43.571Z,985.7
2018-03-10T07:47:45.107Z,985.7
2018-03-10T07:48:46.726Z,985.6
2018-03-10T07:49:48.615Z,985.6
2018-03-10T07:50:50.156Z,985.7
2018-03-10T07:51:51.617Z,985.6
2018-03-10T07:52:53.215Z,985.6
2018-03-10T07:53:54.661Z,985.6
2018-03-10T07:54:56.467Z,985.7
2018-03-10T07:55:58.072Z,985.6
2018-03-10T07:56:59.565Z,985.6
2018-03-10T07:58:01.043Z,985.7
2018-03-10T07:59:02.554Z,985.6
2018-03-10T08:00:04.092Z,985.6
2018-03-10T08:01:05.626Z,985.6
2018-03-10T08:02:07.154Z,985.6
2018-03-10T08:03:08.680Z,985.6
2018-03-10T08:04:10.189Z,985.6
2018-03-10T08:05:11.740Z,985.5
2018-03-10T08:06:13.281Z,985.5
2018-03-10T08:07:14.808Z,985.5
2018-03-10T08:08:16.427Z,985.5
2018-03-10T08:09:17.960Z,985.4
2018-03-10T08:10:19.513Z,985.4
2018-03-10T08:11:21.173Z,985.4
2018-03-10T08:12:22.734Z,985.4
2018-03-10T08:13:24.229Z,985.4
2018-03-10T08:14:25.825Z,985.4
2018-03-10T08:15:27.359Z,985.4
2018-03-10T08:16:28.883Z,985.4
2018-03-10T08:17:30.460Z,985.4
2018-03-10T08:18:32.002Z,985.4
2018-03-10T08:19:33.507Z,985.4
2018-03-10T08:20:35.046Z,985.4
2018-03-10T08:21:36.603Z,985.4
2018-03-10T08:22:38.198Z,985.4
2018-03-10T08:23:39.740Z,985.4
2018-03-10T08:24:41.284Z,985.4
2018-03-10T08:25:42.933Z,985.3
2018-03-10T08:26:44.475Z,985.4
2018-03-10T08:27:45.986Z,985.3
2018-03-10T08:28:47.470Z,985.4
2018-03-10T08:29:48.994Z,985.3
2018-03-10T08:30:50.620Z,985.3
2018-03-10T08:31:52.176Z,985.3
2018-03-10T08:32:53.722Z,985.3
2018-03-10T08:33:55.302Z,985.4
2018-03-10T08:34:56.871Z,985.4
2018-03-10T08:35:58.460Z,985.3
2018-03-10T08:36:59.985Z,985.4
2018-03-10T08:38:01.580Z,985.4
2018-03-10T08:39:03.118Z,985.4
2018-03-10T08:40:04.712Z,985.3
2018-03-10T08:41:06.300Z,985.3
2018-03-10T08:42:07.908Z,985.3
2018-03-10T08:43:09.448Z,985.3
2018-03-10T08:44:11.017Z,985.3
2018-03-10T08:45:12.514Z,985.3
2018-03-10T08:46:14.033Z,985.3
2018-03-10T08:47:15.598Z,985.3
2018-03-10T08:48:17.110Z,985.3
2018-03-10T08:49:19.174Z,985.3
2018-03-10T08:50:20.738Z,985.3
2018-03-10T08:51:22.266Z,985.3
2018-03-10T08:52:23.880Z,985.3
2018-03-10T08:53:25.387Z,985.4
2018-03-10T08:54:26.937Z,985.4
2018-03-10T08:55:28.554Z,985.3
2018-03-10T08:56:30.074Z,985.4
2018-03-10T08:57:31.618Z,985.3
2018-03-10T08:58:33.231Z,985.3
2018-03-10T08:59:34.769Z,985.3
2018-03-10T09:00:36.370Z,985.4
2018-03-10T09:01:37.995Z,985.2
2018-03-10T09:02:39.515Z,985.3
2018-03-10T09:03:41.478Z,985.3
2018-03-10T09:04:43.035Z,985.2
2018-03-10T09:05:44.586Z,985.2
2018-03-10T09:06:46.323Z,985.3
2018-03-10T09:07:47.931Z,985.2
2018-03-10T09:08:49.478Z,985.2
2018-03-10T09:09:51.172Z,985.3
2018-03-10T09:10:52.713Z,985.2
2018-03-10T09:11:54.200Z,985.2
2018-03-10T09:12:55.689Z,985.2
2018-03-10T09:13:57.102Z,985.2
2018-03-10T09:14:58.556Z,985.2
2018-03-10T09:15:59.991Z,985.1
2018-03-10T09:17:01.466Z,985.2
2018-03-10T09:18:02.856Z,985.2
2018-03-10T09:19:04.356Z,985.1
2018-03-10T09:20:05.785Z,985.1
2018-03-10T09:21:07.224Z,985.1
2018-03-10T09:22:08.659Z,985.1
2018-03-10T09:23:10.119Z,985.1
2018-03-10T09:24:11.526Z,985.1
2018-03-10T09:25:13.072Z,985.0
2018-03-10T09:26:14.596Z,985.1
2018-03-10T09:27:16.114Z,985.1
2018-03-10T09:28:17.555Z,985.1
2018-03-10T09:29:19.057Z,985.3
2018-03-10T09:30:20.478Z,985.2
2018-03-10T09:31:21.910Z,985.3
2018-03-10T09:32:23.324Z,985.2
2018-03-10T09:33:24.830Z,985.4
2018-03-10T09:34:26.261Z,985.4
2018-03-10T09:35:27.678Z,985.5
2018-03-10T09:36:29.130Z,985.5
2018-03-10T09:37:30.548Z,985.5
2018-03-10T09:38:31.966Z,985.5
2018-03-10T09:39:33.409Z,985.4
2018-03-10T09:40:34.839Z,985.3
2018-03-10T09:41:36.258Z,985.5
2018-03-10T09:42:37.694Z,985.3
2018-03-10T09:43:39.128Z,985.3
2018-03-10T09:44:40.541Z,985.3
2018-03-10T09:45:41.957Z,985.1
2018-03-10T09:46:43.368Z,985.3
2018-03-10T09:47:44.824Z,985.3
2018-03-10T09:48:46.242Z,985.3
2018-03-10T09:49:47.653Z,985.3
2018-03-10T09:50:49.064Z,985.3
2018-03-10T09:51:50.500Z,985.3
2018-03-10T09:52:51.898Z,985.3
2018-03-10T09:53:53.546Z,985.3
2018-03-10T09:54:54.984Z,985.3
2018-03-10T09:55:56.400Z,985.3
2018-03-10T09:56:57.827Z,985.3
2018-03-10T09:57:59.239Z,985.3
2018-03-10T09:59:00.649Z,985.3
2018-03-10T10:00:02.067Z,985.3
2018-03-10T10:01:03.486Z,985.3
2018-03-10T10:02:04.920Z,985.2
2018-03-10T10:03:06.696Z,985.1
2018-03-10T10:04:09.814Z,985.2
2018-03-10T10:05:13.908Z,985.1
2018-03-10T10:06:15.504Z,985.1
2018-03-10T10:07:17.049Z,985.0
2018-03-10T10:08:18.517Z,985.1
2018-03-10T10:09:19.946Z,985.1
2018-03-10T10:10:21.352Z,985.1
2018-03-10T10:11:22.762Z,985.1
2018-03-10T10:12:24.173Z,985.1
2018-03-10T10:13:25.579Z,985.1
2018-03-10T10:14:26.994Z,985.1
2018-03-10T10:15:28.410Z,985.1
2018-03-10T10:16:29.843Z,985.2
2018-03-10T10:17:31.251Z,985.2
2018-03-10T10:18:32.662Z,985.2
2018-03-10T10:19:34.067Z,985.2
2018-03-10T10:20:35.480Z,985.2
2018-03-10T10:21:36.902Z,985.4
2018-03-10T10:22:38.320Z,985.2
2018-03-10T10:23:39.732Z,985.3
2018-03-10T10:24:41.147Z,985.0
2018-03-10T10:25:42.553Z,985.0
2018-03-10T10:26:43.983Z,985.0
2018-03-10T10:27:45.391Z,985.0
2018-03-10T10:28:46.799Z,985.4
2018-03-10T10:29:48.211Z,985.4
2018-03-10T10:30:49.628Z,985.4
2018-03-10T10:31:51.050Z,985.5
2018-03-10T10:32:52.455Z,985.5
2018-03-10T10:33:53.872Z,985.4
2018-03-10T10:34:55.292Z,985.5
2018-03-10T10:35:56.740Z,985.5
2018-03-10T10:36:58.153Z,985.4
2018-03-10T10:37:59.563Z,985.4
2018-03-10T10:39:00.973Z,985.3
2018-03-10T10:40:02.388Z,985.3
2018-03-10T10:41:03.809Z,985.2
2018-03-10T10:42:05.216Z,985.3
2018-03-10T10:43:06.631Z,985.4
2018-03-10T10:44:08.046Z,985.4
2018-03-10T10:45:09.461Z,985.3
2018-03-10T10:46:10.878Z,985.3
2018-03-10T10:47:12.295Z,985.3
2018-03-10T10:48:13.706Z,985.3
2018-03-10T10:49:15.126Z,985.3
2018-03-10T10:50:16.531Z,985.3
2018-03-10T10:51:17.948Z,985.4
2018-03-10T10:52:19.385Z,985.4
2018-03-10T10:53:20.808Z,985.4
2018-03-10T10:54:22.217Z,985.4
2018-03-10T10:55:23.635Z,985.4
2018-03-10T10:56:25.053Z,985.5
2018-03-10T10:57:26.466Z,985.5
2018-03-10T10:58:27.887Z,985.4
2018-03-10T10:59:29.298Z,985.5
2018-03-10T11:00:30.721Z,985.6
2018-03-10T11:01:32.160Z,985.6
2018-03-10T11:02:33.586Z,985.5
2018-03-10T11:03:35.183Z,985.6
2018-03-10T11:04:37.856Z,985.1
2018-03-10T11:05:39.315Z,985.6
2018-03-10T11:06:40.731Z,985.1
2018-03-10T11:07:42.142Z,985.4
2018-03-10T11:08:43.597Z,985.0
2018-03-10T11:09:45.204Z,985.1
2018-03-10T11:10:46.606Z,985.6
2018-03-10T11:11:48.109Z,985.2
2018-03-10T11:12:51.223Z,985.6
2018-03-10T11:13:52.833Z,985.2
2018-03-10T11:14:55.525Z,985.1
2018-03-10T11:15:58.401Z,985.0
2018-03-10T11:17:01.248Z,985.1
2018-03-10T11:18:04.973Z,985.3
2018-03-10T11:19:06.458Z,985.2
2018-03-10T11:20:08.265Z,985.1
2018-03-10T11:21:09.767Z,985.4
2018-03-10T11:22:11.781Z,985.4
2018-03-10T11:23:13.459Z,985.3
2018-03-10T11:24:15.109Z,985.1
2018-03-10T11:25:16.673Z,985.0
2018-03-10T11:26:18.300Z,985.1
2018-03-10T11:27:20.039Z,985.0
2018-03-10T11:28:21.626Z,985.1
2018-03-10T11:29:23.174Z,985.0
2018-03-10T11:30:25.045Z,985.1
2018-03-10T11:31:26.678Z,985.0
2018-03-10T11:32:28.208Z,985.0
2018-03-10T11:33:29.732Z,985.0
2018-03-10T11:34:31.351Z,985.0
2018-03-10T11:35:32.889Z,985.0
2018-03-10T11:36:34.424Z,985.2
2018-03-10T11:37:36.352Z,985.0
2018-03-10T11:38:37.860Z,984.9
2018-03-10T11:39:39.272Z,984.9
2018-03-10T11:40:40.729Z,984.9
2018-03-10T11:41:42.175Z,984.8
2018-03-10T11:42:43.656Z,984.9
2018-03-10T11:43:45.130Z,985.0
2018-03-10T11:44:46.711Z,984.9
2018-03-10T11:45:48.274Z,985.0
2018-03-10T11:46:49.911Z,985.0
2018-03-10T11:47:51.527Z,985.0
2018-03-10T11:48:54.006Z,984.9
2018-03-10T11:49:55.929Z,985.1
2018-03-10T11:50:57.518Z,985.2
2018-03-10T11:51:59.141Z,985.3
2018-03-10T11:53:00.734Z,985.2
2018-03-10T11:54:02.403Z,985.1
2018-03-10T11:55:03.960Z,985.1
2018-03-10T11:56:05.571Z,985.0
2018-03-10T11:57:07.271Z,984.8
2018-03-10T11:58:08.830Z,984.9
2018-03-10T11:59:10.392Z,984.9
2018-03-10T12:00:11.921Z,984.8
2018-03-10T12:01:13.671Z,984.8
2018-03-10T12:02:15.196Z,984.9
2018-03-10T12:03:16.906Z,984.9
2018-03-10T12:04:19.879Z,985.0
2018-03-10T12:05:21.920Z,984.9
2018-03-10T12:06:23.803Z,984.7
2018-03-10T12:07:25.424Z,984.8
2018-03-10T12:08:27.073Z,984.8
2018-03-10T12:09:28.714Z,985.1
2018-03-10T12:10:30.210Z,984.9
2018-03-10T12:11:32.919Z,985.0
2018-03-10T12:12:34.495Z,984.9
2018-03-10T12:13:36.083Z,984.8
2018-03-10T12:14:37.735Z,985.1
2018-03-10T12:15:39.399Z,985.0
2018-03-10T12:16:42.443Z,985.0
2018-03-10T12:17:43.023Z,985.0
2018-03-10T12:18:44.647Z,985.1
2018-03-10T12:19:46.366Z,985.0
2018-03-10T12:20:47.942Z,985.1
2018-03-10T12:21:49.604Z,985.1
2018-03-10T12:22:51.189Z,985.2
2018-03-10T12:23:52.854Z,985.2
2018-03-10T12:24:54.464Z,985.2
2018-03-10T12:25:56.064Z,985.1
2018-03-10T12:26:57.665Z,985.0
2018-03-10T12:27:59.252Z,985.0
2018-03-10T12:29:00.792Z,985.0
2018-03-10T12:30:02.455Z,985.0
2018-03-10T12:31:04.063Z,985.0
2018-03-10T12:32:05.680Z,985.0
2018-03-10T12:33:07.311Z,985.0
2018-03-10T12:34:09.114Z,985.1
2018-03-10T12:35:10.655Z,985.0
2018-03-10T12:36:12.324Z,984.8
2018-03-10T12:37:13.950Z,984.7
2018-03-10T12:38:15.565Z,984.9
2018-03-10T12:39:17.045Z,984.7
2018-03-10T12:40:18.665Z,984.8
2018-03-10T12:41:20.401Z,984.8
2018-03-10T12:42:22.004Z,984.9
2018-03-10T12:43:23.605Z,984.9
2018-03-10T12:44:25.247Z,985.1
2018-03-10T12:45:26.891Z,984.9
2018-03-10T12:46:28.527Z,984.9
2018-03-10T12:47:30.368Z,984.9
2018-03-10T12:48:31.928Z,984.6
2018-03-10T12:49:33.540Z,984.8
2018-03-10T12:50:35.095Z,984.5
2018-03-10T12:51:36.695Z,984.7
2018-03-10T12:52:38.330Z,984.5
2018-03-10T12:53:40.010Z,984.8
2018-03-10T12:54:41.590Z,984.7
2018-03-10T12:55:43.126Z,984.8
2018-03-10T12:56:44.791Z,984.8
2018-03-10T12:57:46.585Z,984.8
2018-03-10T12:58:48.387Z,984.9
2018-03-10T12:59:49.925Z,984.9
2018-03-10T13:00:51.666Z,984.8
2018-03-10T13:01:53.384Z,985.0
2018-03-10T13:02:55.087Z,984.9
2018-03-10T13:03:56.728Z,984.9
2018-03-10T13:04:58.489Z,984.8
2018-03-10T13:06:00.234Z,984.5
2018-03-10T13:07:02.403Z,984.7
2018-03-10T13:08:04.115Z,984.8
2018-03-10T13:09:06.072Z,984.8
2018-03-10T13:10:07.706Z,984.8
2018-03-10T13:11:10.318Z,984.7
2018-03-10T13:12:12.820Z,984.7